Mitrope — 9HBH6 — position and weather

sailwx.info

Track history (hours):
 
Tides and Currents Weather Stations Pressure Air Temp Water Temp Dewpoint Dewpoint Depression Visibility Wind Speed Wind Dir Waves Ship Positions

Mitrope

Last reported at 2016-Nov-12 00:33 UTC. Time now 2016-Dec-09 23:19 UTC.
Position N 26°47' E 119°43'.
Warning: this ship's position is 27 days out of date.

Length 149 m; draft 6.5 m.

Type: Tanker. MMSI: 248360000.

Date/timePositionNaut miles runAvg speedWind from/ knotsBaromVisibWave heightAir tempDewpointWater temp
2016-Nov-12 00:33N 26°47' E 119°43'100 3.5
2016-Nov-10 20:16N 25°07' E 119°42'4010.7
2016-Nov-10 16:33N 24°43' E 119°06'1110.2
2016-Nov-10 15:31N 24°37' E 118°57'39 9.6
2016-Nov-10 11:30N 24°12' E 118°24'1010.5
2016-Nov-10 10:33N 24°07' E 118°15'1110.8
2016-Nov-10 09:33N 23°60' E 118°06'1111.2
2016-Nov-10 08:33N 23°52' E 117°57'1211.3
2016-Nov-10 07:29N 23°44' E 117°47'1010.5
2016-Nov-10 06:33N 23°37' E 117°40'6210.1
2016-Nov-10 00:27N 22°59' E 116°47'  
Track history (hours):
 
Tides and Currents Weather Stations Pressure Air Temp Water Temp Dewpoint Dewpoint Depression Visibility Wind Speed Wind Dir Waves Ship Positions

Mitrope

Last reported at 2016-Nov-12 00:33 UTC. Time now 2016-Dec-09 23:19 UTC.
Position N 26°47' E 119°43'.
Warning: this ship's position is 27 days out of date.

Length 149 m; draft 6.5 m.

Type: Tanker. MMSI: 248360000.

Date/timePositionNaut miles runAvg speedWind from/ knotsBaromVisibWave heightAir tempDewpointWater temp
2016-Nov-12 00:33N 26°47' E 119°43'100 3.5
2016-Nov-10 20:16N 25°07' E 119°42'4010.7
2016-Nov-10 16:33N 24°43' E 119°06'1110.2
2016-Nov-10 15:31N 24°37' E 118°57'39 9.6
2016-Nov-10 11:30N 24°12' E 118°24'1010.5
2016-Nov-10 10:33N 24°07' E 118°15'1110.8
2016-Nov-10 09:33N 23°60' E 118°06'1111.2
2016-Nov-10 08:33N 23°52' E 117°57'1211.3
2016-Nov-10 07:29N 23°44' E 117°47'1010.5
2016-Nov-10 06:33N 23°37' E 117°40'6210.1
2016-Nov-10 00:27N 22°59' E 116°47'  

Dump ship's entire track history